Austin Straubel International Airport
KGRB : now visible

Airfield :











YOU CAN JOIN US ON...

 
LOGIN :

Register | Disclaimer

   EN    FR    IT 

 









Legend :    VFR   Marginal VFR   IFR   Intensive IFR   Very Intensive IFR
Visi :
Ceiling :
>= 8 km
>= 3000ft
5 to 8 km
1000 to 3000 ft
1500m to 5 km
500 to 1000 ft
800 to 1500m
200 to 500 ft
< 800m
< 200 ft
Symbols :   Thunderstorms  Fog  Heavy snow  Heavy precipitations  Wind > 20 kt






- Airport Elevation : 695 ft
- IATA code : GRB


KGRB - Austin Straubel International

CURRENT METAR :
  • 272353Z 32005KT 10SM OVC021 00/M04 A3002 RMK AO2 SLP173 T00001044 10006 20000 53011

EXPIRED METARs :
  • 272253Z 35005KT 10SM OVC021 00/M05 A3000 RMK AO2 SLP169 T00001050
  • 272153Z 34007KT 10SM OVC023 00/M05 A2999 RMK AO2 SLP165 T00001050

TAF KGRB
Valid from the 28 at 00:00 until the 29 at 00:00 UTC


272332Z 2800/2824 34007KT P6SM OVC020
FM280400 VRB03KT P6SM -SHSN OVC023
FM281300 34002KT P6SM OVC024
FM281800 35004KT P6SM OVC030
FM282000 VRB03KT P6SM BKN035



MET'MAP, your aeronautical weather chart ! - Copyright ORBIFLY December 2007 - Disclaimer

ORBIFLY MET'MAP TEAM :

Programming & Development : Alexandra Zaïnal
Concept & original design : Baudouin d'Aumeries
Assistance for programming : Marc-Olivier Méhu
Technical & hardware support : Manuel Goepfert

Contact : metmap@orbifly.com




SOURCES & CREDITS :

   NOAA       Earth
Advisory